| time (UTC) | temp F | wind direction | speed MPH | gust MPH | rain 1hr in | rain 24hr in | rain mn in | humidity % | barometer mb |
| 20260502195059 | 67 | 42 | 2.0 | 3.0 | 0.00 | 0.00 | 0.00 | 34 | 1009.5 |
| 20260502194022 | 66 | 355 | 3.0 | 5.0 | 0.00 | 0.00 | 0.00 | 35 | 1009.5 |
| 20260502193107 | 67 | 17 | 3.0 | 4.0 | 0.00 | 0.00 | 0.00 | 34 | 1009.5 |
| 20260502192045 | 65 | 212 | 2.0 | 3.0 | 0.00 | 0.00 | 0.00 | 35 | 1009.5 |
| 20260502191017 | 66 | 67 | 3.0 | 5.0 | 0.00 | 0.00 | 0.00 | 35 | 1009.6 |
| 20260502190021 | 65 | 326 | 4.0 | 5.0 | 0.00 | 0.00 | 0.00 | 34 | 1009.8 |
| 20260502185019 | 64 | 10 | 3.0 | 4.0 | 0.00 | 0.00 | 0.00 | 35 | 1009.8 |
| 20260502184016 | 61 | 95 | 3.0 | 4.0 | 0.00 | 0.00 | 0.00 | 38 | 1009.8 |
| 20260502183015 | 61 | 91 | 3.0 | 4.0 | 0.00 | 0.00 | 0.00 | 39 | 1009.7 |
| 20260502182019 | 62 | 115 | 4.0 | 5.0 | 0.00 | 0.00 | 0.00 | 37 | 1009.8 |
| 20260502181023 | 59 | 53 | 3.0 | 4.0 | 0.00 | 0.00 | 0.00 | 41 | 1009.9 |
| 20260502164044 | 53 | 218 | 0.0 | 2.0 | 0.00 | 0.00 | 0.00 | 47 | 1010.3 |
| 20260502163048 | 53 | 215 | 2.0 | 3.0 | 0.00 | 0.00 | 0.00 | 47 | 1010.7 |
| 20260502162052 | 53 | 219 | 2.0 | 4.0 | 0.00 | 0.00 | 0.00 | 48 | 1010.4 |
| 20260502161038 | 53 | 286 | 1.0 | 2.0 | 0.00 | 0.00 | 0.00 | 48 | 1010.6 |
| 20260502152020 | 52 | 190 | 3.0 | 4.0 | 0.00 | 0.00 | 0.00 | 48 | 1010.5 |
| 20260502151024 | 52 | 203 | 3.0 | 5.0 | 0.00 | 0.00 | 0.00 | 47 | 1010.4 |
| 20260502123018 | 42 | 163 | 4.0 | 6.0 | 0.00 | 0.00 | 0.00 | 56 | 1011.5 |
| 20260502122043 | 42 | 159 | 4.0 | 6.0 | 0.00 | 0.00 | 0.00 | 56 | 1011.7 |
| 20260502121046 | 41 | 169 | 4.0 | 6.0 | 0.00 | 0.00 | 0.00 | 57 | 1011.8 |
| 20260502115016 | 40 | 165 | 4.0 | 5.0 | 0.00 | 0.00 | 0.00 | 59 | 1012.2 |
| 20260502114020 | 39 | 167 | 3.0 | 5.0 | 0.00 | 0.00 | 0.00 | 60 | 1012.2 |
| 20260502113024 | 38 | 163 | 3.0 | 4.0 | 0.00 | 0.00 | 0.00 | 60 | 1012.5 |
| 20260502112029 | 38 | 160 | 3.0 | 4.0 | 0.00 | 0.00 | 0.00 | 60 | 1012.5 |
| 20260502111033 | 38 | 152 | 3.0 | 4.0 | 0.00 | 0.00 | 0.00 | 60 | 1012.7 |
| 20260502110018 | 38 | 177 | 3.0 | 4.0 | 0.00 | 0.00 | 0.00 | 59 | 1012.8 |
| 20260502105023 | 38 | 172 | 4.0 | 5.0 | 0.00 | 0.00 | 0.00 | 58 | 1012.9 |
| 20260502104027 | 38 | 166 | 3.0 | 4.0 | 0.00 | 0.00 | 0.00 | 60 | 1013.0 |
| 20260502103031 | 38 | 168 | 3.0 | 3.0 | 0.00 | 0.00 | 0.00 | 60 | 1013.2 |
| 20260502102017 | 38 | 156 | 3.0 | 4.0 | 0.00 | 0.00 | 0.00 | 60 | 1013.5 |
| 20260502101021 | 38 | 153 | 3.0 | 4.0 | 0.00 | 0.00 | 0.00 | 60 | 1013.7 |
| 20260502091027 | 39 | 151 | 3.0 | 4.0 | 0.00 | 0.00 | 0.00 | 58 | 1014.7 |
| 20260502071022 | 38 | 152 | 2.0 | 3.0 | 0.00 | 0.00 | 0.00 | 55 | 1016.3 |
| 20260502070026 | 38 | 155 | 2.0 | 3.0 | 0.00 | 0.00 | 0.00 | 55 | 1016.4 |
| 20260502065031 | 39 | 163 | 2.0 | 3.0 | 0.00 | 0.00 | 0.00 | 55 | 1016.5 |
| 20260502064057 | 39 | 158 | 2.0 | 4.0 | 0.00 | 0.00 | 0.00 | 55 | 1016.6 |
| 20260502063101 | 38 | 144 | 2.0 | 3.0 | 0.00 | 0.00 | 0.00 | 55 | 1016.8 |
| 20260502062045 | 38 | 161 | 2.0 | 3.0 | 0.00 | 0.00 | 0.00 | 56 | 1016.8 |
| 20260502061029 | 37 | 151 | 2.0 | 3.0 | 0.00 | 0.00 | 0.00 | 58 | 1017.1 |
| 20260502060015 | 37 | 150 | 2.0 | 2.0 | 0.00 | 0.00 | 0.00 | 57 | 1017.1 |
| 20260502055019 | 37 | 169 | 0.0 | 2.0 | 0.00 | 0.00 | 0.00 | 55 | 1017.2 |
| 20260502054023 | 38 | 180 | 0.0 | 2.0 | 0.00 | 0.00 | 0.00 | 53 | 1017.3 |
| 20260502053027 | 39 | 184 | 2.0 | 3.0 | 0.00 | 0.00 | 0.00 | 52 | 1017.3 |
| 20260502052051 | 38 | 158 | 2.0 | 3.0 | 0.00 | 0.00 | 0.00 | 53 | 1017.5 |
| 20260502051018 | 37 | 118 | 0.0 | 1.0 | 0.00 | 0.00 | 0.00 | 55 | 1017.6 |
| 20260502050022 | 37 | 0.0 | 0.0 | 0.00 | 0.00 | 0.00 | 56 | 1017.7 | |
| 20260502045025 | 38 | 0.0 | 0.0 | 0.00 | 0.00 | 0.00 | 54 | 1017.7 | |
| 20260502044030 | 39 | 0.0 | 0.0 | 0.00 | 0.00 | 0.00 | 52 | 1017.7 | |
| 20260502043036 | 39 | 0.0 | 0.0 | 0.00 | 0.00 | 0.00 | 51 | 1017.8 | |
| 20260502042020 | 40 | 0.0 | 0.0 | 0.00 | 0.00 | 0.00 | 50 | 1017.8 | |
| 20260502041024 | 41 | 0.0 | 0.0 | 0.00 | 0.00 | 0.00 | 48 | 1018.0 | |
| 20260502040028 | 42 | 127 | 2.0 | 2.0 | 0.00 | 0.00 | 0.00 | 47 | 1018.0 |
| 20260502035026 | 42 | 125 | 2.0 | 2.0 | 0.00 | 0.00 | 0.00 | 46 | 1017.9 |
| 20260502034019 | 43 | 126 | 2.0 | 2.0 | 0.00 | 0.00 | 0.00 | 46 | 1017.9 |
| 20260502033022 | 43 | 115 | 2.0 | 3.0 | 0.00 | 0.00 | 0.00 | 45 | 1018.0 |
| 20260502032021 | 44 | 119 | 2.0 | 3.0 | 0.00 | 0.00 | 0.00 | 44 | 1018.0 |
| 20260502031018 | 43 | 113 | 2.0 | 3.0 | 0.00 | 0.00 | 0.00 | 44 | 1018.0 |
| 20260502030016 | 43 | 113 | 2.0 | 3.0 | 0.00 | 0.00 | 0.00 | 46 | 1018.0 |
| 20260502025020 | 43 | 113 | 1.0 | 3.0 | 0.00 | 0.00 | 0.00 | 47 | 1017.9 |
| 20260502024126 | 43 | 0.0 | 0.0 | 0.00 | 0.00 | 0.00 | 46 | 1017.9 | |
| 20260502023029 | 44 | 0.0 | 0.0 | 0.00 | 0.00 | 0.00 | 46 | 1017.9 | |
| 20260502022036 | 45 | 0.0 | 0.0 | 0.00 | 0.00 | 0.00 | 46 | 1017.9 | |
| 20260502021019 | 46 | 0.0 | 0.0 | 0.00 | 0.00 | 0.00 | 44 | 1018.0 | |
| 20260502020123 | 47 | 0.0 | 0.0 | 0.00 | 0.00 | 0.00 | 43 | 1018.0 | |
| 20260502015027 | 49 | 113 | 0.0 | 1.0 | 0.00 | 0.00 | 0.00 | 40 | 1018.0 |
| 20260502014031 | 50 | 124 | 1.0 | 2.0 | 0.00 | 0.00 | 0.00 | 39 | 1018.0 |
| 20260502013037 | 52 | 113 | 2.0 | 2.0 | 0.00 | 0.00 | 0.00 | 37 | 1018.1 |
| 20260502012021 | 54 | 113 | 1.0 | 2.0 | 0.00 | 0.00 | 0.00 | 36 | 1018.2 |
| 20260502011026 | 55 | 125 | 2.0 | 2.0 | 0.00 | 0.00 | 0.00 | 34 | 1018.3 |
| 20260502010029 | 56 | 132 | 2.0 | 2.0 | 0.00 | 0.00 | 0.00 | 33 | 1018.4 |
| 20260502005036 | 56 | 145 | 2.0 | 3.0 | 0.00 | 0.00 | 0.00 | 33 | 1018.4 |
| 20260502004020 | 58 | 140 | 2.0 | 3.0 | 0.00 | 0.00 | 0.00 | 31 | 1018.4 |
| 20260502003044 | 61 | 143 | 2.0 | 2.0 | 0.00 | 0.00 | 0.00 | 29 | 1018.5 |
| 20260502002028 | 61 | 126 | 2.0 | 4.0 | 0.00 | 0.00 | 0.00 | 29 | 1018.7 |
| 20260502001032 | 60 | 106 | 1.0 | 2.0 | 0.00 | 0.00 | 0.00 | 28 | 1018.7 |
| 20260502000018 | 62 | 243 | 1.0 | 3.0 | 0.00 | 0.00 | 0.00 | 27 | 1018.8 |
| 20260501235022 | 63 | 218 | 3.0 | 4.0 | 0.00 | 0.00 | 0.00 | 27 | 1018.9 |
| 20260501234026 | 64 | 278 | 3.0 | 5.0 | 0.00 | 0.00 | 0.00 | 26 | 1019.0 |
| 20260501233031 | 64 | 118 | 2.0 | 4.0 | 0.00 | 0.00 | 0.00 | 26 | 1019.1 |
| 20260501232016 | 63 | 25 | 2.0 | 3.0 | 0.00 | 0.00 | 0.00 | 26 | 1019.1 |
| 20260501231020 | 62 | 309 | 3.0 | 5.0 | 0.00 | 0.00 | 0.00 | 28 | 1019.3 |
| 20260501230025 | 59 | 248 | 3.0 | 5.0 | 0.00 | 0.00 | 0.00 | 28 | 1019.4 |
| 20260501225029 | 59 | 305 | 2.0 | 3.0 | 0.00 | 0.00 | 0.00 | 30 | 1019.5 |
| 20260501224027 | 59 | 1 | 2.0 | 4.0 | 0.00 | 0.00 | 0.00 | 30 | 1019.5 |
| 20260501223019 | 59 | 306 | 3.0 | 8.0 | 0.00 | 0.00 | 0.00 | 30 | 1019.5 |
| 20260501222023 | 60 | 251 | 5.0 | 6.0 | 0.00 | 0.00 | 0.00 | 29 | 1019.6 |
| 20260501221021 | 59 | 265 | 3.0 | 6.0 | 0.00 | 0.00 | 0.00 | 30 | 1019.7 |
| 20260501220019 | 57 | 141 | 2.0 | 5.0 | 0.00 | 0.00 | 0.00 | 30 | 1019.9 |
| 20260501215017 | 57 | 223 | 3.0 | 6.0 | 0.00 | 0.00 | 0.00 | 30 | 1020.0 |
| 20260501214016 | 59 | 266 | 4.0 | 7.0 | 0.00 | 0.00 | 0.00 | 30 | 1020.1 |
| 20260501213026 | 58 | 266 | 5.0 | 7.0 | 0.00 | 0.00 | 0.00 | 30 | 1020.2 |
| 20260501212029 | 58 | 266 | 6.0 | 8.0 | 0.00 | 0.00 | 0.00 | 31 | 1020.4 |
| 20260501211015 | 58 | 270 | 6.0 | 7.0 | 0.00 | 0.00 | 0.00 | 31 | 1020.4 |
| 20260501210020 | 56 | 68 | 4.0 | 6.0 | 0.00 | 0.00 | 0.00 | 33 | 1020.4 |
| 20260501205104 | 57 | 51 | 3.0 | 6.0 | 0.00 | 0.00 | 0.00 | 33 | 1020.5 |
| 20260501204027 | 57 | 331 | 4.0 | 6.0 | 0.00 | 0.00 | 0.00 | 33 | 1020.5 |
| 20260501203033 | 58 | 302 | 4.0 | 6.0 | 0.00 | 0.00 | 0.00 | 32 | 1020.5 |
| 20260501202018 | 56 | 265 | 3.0 | 7.0 | 0.00 | 0.00 | 0.00 | 33 | 1020.7 |
| 20260501201042 | 57 | 298 | 4.0 | 7.0 | 0.00 | 0.00 | 0.00 | 32 | 1020.9 |
| 20260501200026 | 57 | 279 | 5.0 | 8.0 | 0.00 | 0.00 | 0.00 | 33 | 1020.9 |